Time;durP1;ratioP1;P1;durP2;ratioP2;P2;SDS_P1;SDS_P2;PMS_P1;PMS_P2;Temp;Humidity;BMP_temperature;BMP_pressure;BME280_temperature;BME280_humidity;BME280_pressure;Samples;Min_cycle;Max_cycle;Signal;HPM_P1;HPM_P2
2023/09/14 00:01:21;;;;;;;7.97;3.20;;;;;;;10.64;100.00;102249.38;10316905;28;20035;-68
2023/09/14 00:06:21;;;;;;;6.47;2.70;;;;;;;10.68;100.00;102245.13;10301495;28;20046;-68
2023/09/14 00:11:21;;;;;;;6.10;2.60;;;;;;;10.71;100.00;102249.38;10308170;28;20038;-68
2023/09/14 00:16:22;;;;;;;8.68;3.40;;;;;;;10.69;100.00;102249.56;10310370;28;20039;-68
2023/09/14 00:21:22;;;;;;;6.63;3.33;;;;;;;10.70;100.00;102233.88;10319614;28;20093;-68
2023/09/14 00:26:23;;;;;;;8.77;2.20;;;;;;;10.56;100.00;102238.63;10311897;28;20043;-69
2023/09/14 00:31:23;;;;;;;7.38;2.95;;;;;;;10.46;100.00;102238.28;10316420;28;20045;-69
2023/09/14 00:36:24;;;;;;;6.78;2.03;;;;;;;10.43;100.00;102239.53;10311879;28;20445;-68
2023/09/14 00:41:24;;;;;;;7.50;2.47;;;;;;;10.44;100.00;102246.75;10317468;28;20038;-68
2023/09/14 00:46:25;;;;;;;8.15;3.22;;;;;;;10.53;100.00;102260.28;10320419;28;20039;-68
2023/09/14 00:51:27;;;;;;;10.10;3.70;;;;;;;10.61;100.00;102258.09;10321874;28;20046;-67
2023/09/14 00:56:28;;;;;;;7.22;3.25;;;;;;;10.68;100.00;102256.13;10321546;28;20085;-68
2023/09/14 01:01:31;;;;;;;8.57;2.95;;;;;;;10.76;100.00;102256.97;10319973;28;20093;-68
2023/09/14 01:06:32;;;;;;;11.02;2.90;;;;;;;10.80;100.00;102258.19;10320054;28;20035;-68
2023/09/14 01:11:32;;;;;;;11.02;3.40;;;;;;;10.80;100.00;102242.50;10305777;28;20042;-68
2023/09/14 01:16:46;;;;;;;8.68;3.45;;;;;;;10.59;100.00;102204.31;10313671;28;20410;-68
2023/09/14 01:21:56;;;;;;;9.65;3.13;;;;;;;10.90;100.00;102250.28;10321375;28;20039;-68
2023/09/14 01:26:56;;;;;;;8.10;2.70;;;;;;;10.96;100.00;102252.16;10318052;28;20048;-69
2023/09/14 01:31:57;;;;;;;4.53;2.90;;;;;;;11.01;100.00;102246.81;10312685;28;20520;-69
2023/09/14 01:36:58;;;;;;;4.75;2.85;;;;;;;11.05;100.00;102244.44;10316603;28;20050;-69
2023/09/14 01:41:59;;;;;;;11.18;3.17;;;;;;;11.11;100.00;102241.63;10320321;28;20042;-68
2023/09/14 01:46:59;;;;;;;8.93;2.65;;;;;;;11.17;100.00;102247.34;10291941;28;20042;-68
2023/09/14 01:52:00;;;;;;;5.13;2.55;;;;;;;11.19;100.00;102243.28;10298766;28;20089;-68
2023/09/14 01:57:00;;;;;;;6.90;2.22;;;;;;;11.24;100.00;102245.34;10314733;28;20046;-69
2023/09/14 02:02:01;;;;;;;5.88;2.85;;;;;;;11.26;100.00;102244.03;10321753;28;20042;-69
2023/09/14 02:07:02;;;;;;;6.30;2.35;;;;;;;11.31;100.00;102235.13;10315642;28;20062;-69
2023/09/14 02:12:02;;;;;;;7.85;2.47;;;;;;;11.30;100.00;102223.22;10320799;28;20053;-69
2023/09/14 02:17:03;;;;;;;5.40;2.33;;;;;;;11.27;100.00;102226.44;10316570;28;20035;-67
2023/09/14 02:22:03;;;;;;;5.10;2.25;;;;;;;11.25;100.00;102225.00;10312547;28;20053;-68
2023/09/14 02:27:04;;;;;;;10.20;2.30;;;;;;;11.21;100.00;102226.53;10317173;28;20045;-68
2023/09/14 02:32:06;;;;;;;5.97;2.17;;;;;;;11.16;100.00;102218.91;10317340;28;20537;-68
2023/09/14 02:37:07;;;;;;;7.40;2.50;;;;;;;11.10;100.00;102217.91;10313992;28;20078;-69
2023/09/14 02:42:07;;;;;;;4.25;2.08;;;;;;;11.07;100.00;102228.53;10316361;28;20043;-68
2023/09/14 02:47:08;;;;;;;5.75;2.35;;;;;;;11.06;100.00;102230.44;10302070;28;20043;-69
2023/09/14 02:52:08;;;;;;;6.68;2.05;;;;;;;11.09;100.00;102232.75;10318528;28;20046;-68
2023/09/14 02:57:09;;;;;;;6.03;2.60;;;;;;;11.11;100.00;102230.59;10313328;28;20047;-69
2023/09/14 03:02:09;;;;;;;7.30;2.97;;;;;;;11.11;100.00;102230.59;10320267;28;20489;-69
2023/09/14 03:07:10;;;;;;;8.73;2.80;;;;;;;11.09;100.00;102220.88;10312671;28;20498;-69
2023/09/14 03:12:10;;;;;;;5.38;2.90;;;;;;;11.01;100.00;102219.25;10311739;28;20430;-68
2023/09/14 03:17:11;;;;;;;4.00;2.58;;;;;;;10.93;100.00;102216.75;10320005;28;20108;-69
2023/09/14 03:22:11;;;;;;;5.72;2.55;;;;;;;10.86;100.00;102221.50;10314480;28;20050;-69
2023/09/14 03:27:12;;;;;;;7.38;1.98;;;;;;;10.78;100.00;102219.00;10315149;28;20062;-68
2023/09/14 03:32:12;;;;;;;7.50;2.13;;;;;;;10.73;100.00;102224.31;10314913;28;20043;-68
2023/09/14 03:37:13;;;;;;;5.50;2.25;;;;;;;10.64;100.00;102221.00;10303702;28;20069;-68
2023/09/14 03:42:13;;;;;;;5.13;2.70;;;;;;;10.60;100.00;102231.59;10315405;28;20050;-68
2023/09/14 03:47:14;;;;;;;6.00;2.40;;;;;;;10.56;100.00;102221.25;10317198;28;20047;-68
2023/09/14 03:52:14;;;;;;;7.70;3.63;;;;;;;10.54;100.00;102224.22;10311667;28;20097;-69
2023/09/14 03:57:15;;;;;;;9.18;2.63;;;;;;;10.51;100.00;102230.19;10316574;28;20045;-68
2023/09/14 04:02:15;;;;;;;5.75;3.13;;;;;;;10.47;100.00;102231.69;10306097;28;20054;-68
2023/09/14 04:07:16;;;;;;;8.65;3.45;;;;;;;10.43;100.00;102227.69;10307546;28;20055;-69
2023/09/14 04:12:16;;;;;;;5.00;2.88;;;;;;;10.33;100.00;102219.91;10307451;28;20073;-67
2023/09/14 04:17:17;;;;;;;6.55;2.45;;;;;;;10.21;100.00;102225.25;10318570;28;20434;-67
2023/09/14 04:22:18;;;;;;;4.22;2.30;;;;;;;10.07;100.00;102223.63;10311919;28;20102;-68
2023/09/14 04:27:18;;;;;;;5.53;2.67;;;;;;;9.94;100.00;102218.16;10315989;28;20073;-68
2023/09/14 04:32:18;;;;;;;6.20;2.70;;;;;;;9.84;100.00;102233.22;10310894;28;20039;-68
2023/09/14 04:37:19;;;;;;;6.80;2.47;;;;;;;9.74;100.00;102234.72;10312751;28;20035;-69
2023/09/14 04:42:19;;;;;;;8.35;2.72;;;;;;;9.16;100.00;102158.50;10314927;28;20069;-67
2023/09/14 04:47:20;;;;;;;7.57;2.58;;;;;;;9.60;100.00;102250.41;10313595;28;20090;-68
2023/09/14 04:52:20;;;;;;;8.45;2.70;;;;;;;9.50;100.00;102246.16;10313653;28;20046;-68
2023/09/14 04:57:23;;;;;;;9.13;3.03;;;;;;;9.42;100.00;102249.16;10313593;28;20050;-68
2023/09/14 05:02:24;;;;;;;5.75;3.05;;;;;;;9.36;100.00;102263.75;10307714;28;20038;-68
2023/09/14 05:07:24;;;;;;;5.47;2.67;;;;;;;9.33;100.00;102249.59;10307828;28;20046;-69
2023/09/14 05:12:25;;;;;;;7.90;2.85;;;;;;;9.30;100.00;102259.09;10296954;28;20039;-68
2023/09/14 05:17:25;;;;;;;8.25;3.00;;;;;;;9.31;100.00;102255.28;10308477;28;20047;-68
2023/09/14 05:22:28;;;;;;;7.28;3.00;;;;;;;9.33;100.00;102260.59;10318313;28;20042;-68
2023/09/14 05:27:28;;;;;;;7.72;3.08;;;;;;;9.33;100.00;102261.44;10308105;28;20455;-69
2023/09/14 05:32:28;;;;;;;8.20;3.42;;;;;;;9.38;100.00;102263.53;10319939;28;20074;-69
2023/09/14 05:37:29;;;;;;;5.90;2.80;;;;;;;9.41;100.00;102263.97;10314623;28;20038;-69
2023/09/14 05:42:30;;;;;;;4.70;3.10;;;;;;;9.49;100.00;102272.00;10318714;28;20049;-68
2023/09/14 05:47:30;;;;;;;7.50;2.53;;;;;;;9.53;100.00;102282.53;10317615;28;20043;-69
2023/09/14 05:52:31;;;;;;;10.40;3.13;;;;;;;9.56;100.00;102271.13;10318793;28;20042;-68
2023/09/14 05:57:31;;;;;;;8.18;3.17;;;;;;;9.63;100.00;102277.47;10298557;28;20035;-68
2023/09/14 06:02:32;;;;;;;7.05;2.80;;;;;;;9.61;100.00;102271.31;10316000;28;20047;-69
2023/09/14 06:07:32;;;;;;;8.30;3.05;;;;;;;9.81;100.00;102287.81;10310929;28;20061;-68
2023/09/14 06:12:33;;;;;;;7.97;2.90;;;;;;;10.00;100.00;102286.91;10317487;28;20046;-67
2023/09/14 06:17:34;;;;;;;13.82;2.92;;;;;;;10.25;100.00;102283.44;10301529;28;20115;-69
2023/09/14 06:22:34;;;;;;;7.18;2.67;;;;;;;10.49;100.00;102276.38;10314625;28;20063;-68
2023/09/14 06:27:35;;;;;;;9.15;2.13;;;;;;;10.66;100.00;102291.31;10320243;28;20042;-68
2023/09/14 06:32:35;;;;;;;4.20;1.88;;;;;;;10.87;100.00;102301.19;10312151;28;20061;-69
2023/09/14 06:37:36;;;;;;;4.13;2.38;;;;;;;11.11;100.00;102310.53;10311553;28;20089;-68
2023/09/14 06:42:36;;;;;;;4.80;1.70;;;;;;;11.32;100.00;102302.97;10311638;28;20427;-68
2023/09/14 06:47:37;;;;;;;5.78;1.98;;;;;;;11.49;100.00;102308.75;10317323;28;20046;-69
2023/09/14 06:52:37;;;;;;;4.90;1.88;;;;;;;11.65;100.00;102312.88;10314348;28;20038;-68
2023/09/14 06:57:38;;;;;;;3.38;1.63;;;;;;;11.76;100.00;102303.88;10316797;28;20042;-68
2023/09/14 07:02:39;;;;;;;4.82;1.80;;;;;;;11.89;100.00;102306.50;10315300;28;20041;-70
2023/09/14 07:07:40;;;;;;;6.78;1.50;;;;;;;12.01;100.00;102302.97;10303798;28;20042;-69
2023/09/14 07:12:40;;;;;;;6.28;1.92;;;;;;;12.16;100.00;102306.22;10302904;28;20062;-67
2023/09/14 07:17:41;;;;;;;5.85;1.70;;;;;;;12.25;100.00;102313.09;10297842;28;20055;-69
2023/09/14 07:22:41;;;;;;;8.15;1.75;;;;;;;12.29;100.00;102307.97;10301795;28;20579;-69
2023/09/14 07:27:42;;;;;;;2.92;1.40;;;;;;;12.42;100.00;102306.97;10297718;28;20051;-68
2023/09/14 07:32:42;;;;;;;4.07;1.70;;;;;;;12.34;100.00;102261.19;10297111;28;20046;-69
2023/09/14 07:37:43;;;;;;;2.00;1.10;;;;;;;12.84;100.00;102315.34;10285521;28;20043;-68
2023/09/14 07:42:43;;;;;;;3.03;1.05;;;;;;;13.01;100.00;102319.13;10302726;28;20043;-68
2023/09/14 07:47:43;;;;;;;3.58;1.80;;;;;;;13.10;100.00;102314.09;10311265;28;20046;-69
2023/09/14 07:52:44;;;;;;;3.05;1.00;;;;;;;13.14;100.00;102309.78;10316360;28;20046;-69
2023/09/14 07:57:45;;;;;;;3.25;1.17;;;;;;;13.27;100.00;102317.03;10311811;28;20038;-69
2023/09/14 08:02:45;;;;;;;5.97;1.10;;;;;;;13.49;100.00;102318.19;10295000;28;20055;-69
2023/09/14 08:07:45;;;;;;;3.70;1.75;;;;;;;13.60;100.00;102308.22;10294420;28;20094;-68
2023/09/14 08:12:46;;;;;;;3.42;1.00;;;;;;;13.84;100.00;102320.13;10303567;28;20043;-68
2023/09/14 08:17:46;;;;;;;8.15;1.83;;;;;;;14.04;100.00;102318.94;10312976;28;20046;-67
2023/09/14 08:22:48;;;;;;;4.13;1.33;;;;;;;14.27;100.00;102316.09;10312616;28;20043;-69
2023/09/14 08:27:48;;;;;;;2.58;1.08;;;;;;;14.52;100.00;102326.06;10311429;28;20648;-69
2023/09/14 08:32:49;;;;;;;4.85;1.13;;;;;;;14.85;100.00;102330.91;10315531;28;20066;-69
2023/09/14 08:37:52;;;;;;;6.28;0.80;;;;;;;15.10;100.00;102308.34;10298156;28;20050;-68
2023/09/14 08:42:53;;;;;;;6.90;0.88;;;;;;;15.45;100.00;102317.56;10299156;28;20061;-69
2023/09/14 08:47:54;;;;;;;5.30;1.20;;;;;;;15.82;100.00;102317.06;10278324;28;20047;-69
2023/09/14 08:52:55;;;;;;;4.82;0.85;;;;;;;16.31;100.00;102314.44;10314776;28;20905;-69
2023/09/14 08:57:55;;;;;;;4.25;0.95;;;;;;;16.52;100.00;102293.28;10302349;28;20042;-69
2023/09/14 09:02:56;;;;;;;5.65;0.80;;;;;;;16.75;100.00;102298.53;10298239;28;20034;-69
2023/09/14 09:07:58;;;;;;;8.80;1.00;;;;;;;16.85;100.00;102292.28;10321724;28;20042;-69
2023/09/14 09:13:02;;;;;;;3.33;0.70;;;;;;;16.84;100.00;102284.19;10308243;28;20086;-69
2023/09/14 09:18:07;;;;;;;5.35;1.02;;;;;;;16.99;100.00;102286.28;10314790;28;20045;-69
2023/09/14 09:23:08;;;;;;;3.00;0.98;;;;;;;17.09;100.00;102284.44;10318972;28;20038;-69
2023/09/14 09:28:08;;;;;;;8.90;0.80;;;;;;;17.24;100.00;102286.53;10317832;28;20065;-68
2023/09/14 09:33:09;;;;;;;3.85;1.13;;;;;;;17.33;100.00;102286.88;10317476;28;20097;-68
2023/09/14 09:38:14;;;;;;;2.67;0.50;;;;;;;16.77;100.00;102223.19;10316756;28;20042;-68
2023/09/14 09:43:15;;;;;;;3.05;0.90;;;;;;;17.10;100.00;102255.53;10317327;28;20110;-70
2023/09/14 09:48:15;;;;;;;2.38;0.75;;;;;;;16.88;100.00;102251.97;10318648;28;20118;-68
2023/09/14 09:53:16;;;;;;;2.67;0.80;;;;;;;16.57;100.00;102257.19;10294047;28;20042;-68
2023/09/14 09:58:18;;;;;;;3.45;0.43;;;;;;;16.59;100.00;102282.78;10320073;28;20062;-68
2023/09/14 10:03:20;;;;;;;5.30;0.90;;;;;;;17.31;100.00;102264.03;10304895;28;20053;-68
2023/09/14 10:08:21;;;;;;;4.25;1.05;;;;;;;17.60;100.00;102264.53;10281889;28;20043;-68
2023/09/14 10:13:22;;;;;;;2.65;0.88;;;;;;;17.90;100.00;102252.78;10318660;28;20058;-68
2023/09/14 10:18:25;;;;;;;4.28;0.70;;;;;;;18.25;100.00;102247.63;10311736;28;20066;-68
2023/09/14 10:23:25;;;;;;;5.95;0.90;;;;;;;18.71;100.00;102245.81;10321094;28;20629;-69
2023/09/14 10:28:26;;;;;;;1.95;0.73;;;;;;;19.25;100.00;102238.09;10294982;28;20078;-69
2023/09/14 10:33:26;;;;;;;4.50;1.88;;;;;;;19.70;100.00;102233.53;10319475;28;20109;-68
2023/09/14 10:38:27;;;;;;;8.02;1.60;;;;;;;20.06;100.00;102231.50;10314351;28;20046;-69
2023/09/14 10:43:27;;;;;;;3.17;0.90;;;;;;;20.63;100.00;102228.44;10301748;28;20075;-72
2023/09/14 10:48:29;;;;;;;4.50;1.02;;;;;;;20.52;100.00;102239.66;10308184;28;20287;-68
2023/09/14 10:53:30;;;;;;;3.97;1.27;;;;;;;20.43;100.00;102234.97;10315216;28;20375;-70
2023/09/14 10:58:41;;;;;;;2.70;0.80;;;;;;;20.81;94.71;102173.75;10313970;28;20050;-70
2023/09/14 11:04:13;;;;;;;7.97;1.73;;;;;;;20.81;92.80;102224.94;10317561;28;20113;-69
2023/09/14 11:09:15;;;;;;;5.97;1.67;;;;;;;21.23;91.91;102217.91;10285486;28;20043;-70
2023/09/14 11:14:17;;;;;;;7.15;2.00;;;;;;;20.63;93.80;102236.81;10303527;28;20090;-69
2023/09/14 11:19:29;;;;;;;3.70;0.77;;;;;;;19.95;100.00;102249.44;10317814;28;20042;-70
2023/09/14 11:24:33;;;;;;;5.30;2.15;;;;;;;20.49;100.00;102233.81;10304183;28;20043;-70
2023/09/14 11:29:34;;;;;;;2.47;0.98;;;;;;;20.21;94.91;102221.38;10319212;28;20041;-69
2023/09/14 11:34:38;;;;;;;6.43;1.13;;;;;;;19.80;100.00;102230.75;10293695;28;20042;-69
2023/09/14 11:39:40;;;;;;;4.40;1.08;;;;;;;19.47;100.00;102244.22;10301755;28;20604;-69
2023/09/14 11:44:49;;;;;;;7.50;1.10;;;;;;;19.82;100.00;102228.50;10311869;28;20521;-69
2023/09/14 11:49:49;;;;;;;3.22;1.33;;;;;;;20.33;98.01;102210.69;10291882;28;20487;-69
2023/09/14 11:54:51;;;;;;;6.93;2.10;;;;;;;21.23;98.76;102217.03;10294391;28;20106;-70
2023/09/14 11:59:52;;;;;;;4.50;1.00;;;;;;;22.38;92.63;102200.34;10301863;28;20049;-69
2023/09/14 12:04:52;;;;;;;4.22;1.15;;;;;;;23.57;83.54;102186.03;10302113;28;20094;-70
2023/09/14 12:09:54;;;;;;;4.28;1.10;;;;;;;23.64;79.12;102177.19;10287266;28;20050;-70
2023/09/14 12:14:57;;;;;;;2.22;0.98;;;;;;;23.72;76.08;102176.44;10301198;28;20066;-70
2023/09/14 12:19:59;;;;;;;3.42;1.00;;;;;;;23.59;80.50;102194.16;10280865;28;20422;-70
2023/09/14 12:25:00;;;;;;;1.98;1.00;;;;;;;22.77;80.27;102173.94;10295901;28;20043;-69
2023/09/14 12:30:05;;;;;;;4.82;1.30;;;;;;;23.62;80.25;102171.03;10283074;28;20038;-70
2023/09/14 12:35:06;;;;;;;3.23;1.23;;;;;;;23.86;76.71;102177.31;10310611;28;20109;-70
2023/09/14 12:40:10;;;;;;;4.60;1.10;;;;;;;22.83;78.96;102172.72;10302107;28;20395;-70
2023/09/14 12:45:14;;;;;;;3.55;1.20;;;;;;;22.51;79.32;102182.78;10299299;28;20051;-70
2023/09/14 12:50:17;;;;;;;5.70;1.40;;;;;;;23.63;80.58;102183.97;10305139;28;20101;-70
2023/09/14 12:55:18;;;;;;;2.42;1.02;;;;;;;25.22;73.49;102155.84;10307218;28;20893;-69
2023/09/14 13:00:24;;;;;;;4.00;1.40;;;;;;;25.87;68.37;102140.16;10299142;28;20035;-70
2023/09/14 13:05:25;;;;;;;3.92;1.40;;;;;;;26.57;68.29;102149.56;10282879;28;20039;-70
2023/09/14 13:10:27;;;;;;;7.15;1.52;;;;;;;26.61;64.79;102121.50;10298604;28;20181;-70
2023/09/14 13:15:28;;;;;;;9.38;2.85;;;;;;;26.65;64.97;102114.00;10295870;28;20127;-71
2023/09/14 13:20:33;;;;;;;3.20;1.20;;;;;;;26.52;67.63;102135.59;10297803;28;20051;-70
2023/09/14 13:25:34;;;;;;;5.93;1.40;;;;;;;25.39;68.20;102134.53;10282927;28;20035;-70
2023/09/14 13:30:34;;;;;;;3.70;1.40;;;;;;;24.65;72.03;102142.34;10316710;28;20105;-70
2023/09/14 13:35:35;;;;;;;2.90;1.50;;;;;;;23.00;73.65;102149.69;10313340;28;20113;-70
2023/09/14 13:40:35;;;;;;;9.43;1.60;;;;;;;22.11;77.39;102151.31;10311350;28;20106;-70
2023/09/14 13:45:36;;;;;;;4.55;1.20;;;;;;;21.59;85.30;102160.69;10321025;28;20070;-69
2023/09/14 13:50:36;;;;;;;9.55;1.95;;;;;;;20.90;84.91;102153.25;10316470;28;20097;-70
2023/09/14 13:55:39;;;;;;;2.95;1.17;;;;;;;20.64;91.58;102161.00;10321243;28;20038;-70
2023/09/14 14:00:41;;;;;;;2.40;1.30;;;;;;;22.39;87.55;102142.25;10314969;28;20046;-69
2023/09/14 14:05:42;;;;;;;4.90;1.15;;;;;;;24.53;77.79;102106.28;10318491;28;20053;-69
2023/09/14 14:10:42;;;;;;;5.55;1.50;;;;;;;26.00;74.32;102103.69;10317701;28;20039;-69
2023/09/14 14:15:44;;;;;;;6.72;2.05;;;;;;;26.98;69.92;102093.66;10317336;28;20035;-69
2023/09/14 14:20:45;;;;;;;7.50;1.98;;;;;;;27.00;68.88;102096.13;10318758;28;20043;-70
2023/09/14 14:25:45;;;;;;;3.17;1.55;;;;;;;26.68;66.22;102076.59;10317056;28;20030;-70
2023/09/14 14:30:46;;;;;;;6.57;1.35;;;;;;;26.57;66.62;102066.84;10298843;28;20158;-71
2023/09/14 14:35:46;;;;;;;6.63;1.77;;;;;;;25.76;70.05;102088.03;10297392;28;20058;-70
2023/09/14 14:40:46;;;;;;;4.38;1.52;;;;;;;25.08;67.82;102071.34;10293764;28;20042;-69
2023/09/14 14:45:47;;;;;;;5.22;1.80;;;;;;;24.83;70.77;102094.59;10309767;28;20043;-69
2023/09/14 14:50:47;;;;;;;4.78;1.60;;;;;;;23.99;68.89;102090.41;10301075;28;20483;-70
2023/09/14 14:55:48;;;;;;;3.83;1.67;;;;;;;23.53;74.88;102118.34;10297979;28;20495;-70
2023/09/14 15:00:49;;;;;;;4.05;1.73;;;;;;;23.28;75.54;102113.25;10306683;28;20043;-70
2023/09/14 15:05:50;;;;;;;4.53;1.40;;;;;;;22.56;72.13;102094.84;10295561;28;20076;-70
2023/09/14 15:10:51;;;;;;;4.35;1.27;;;;;;;22.17;76.03;102101.59;10288986;28;20050;-70
2023/09/14 15:15:51;;;;;;;4.82;1.55;;;;;;;21.71;79.79;102117.09;10240175;28;20050;-69
2023/09/14 15:20:52;;;;;;;4.90;1.35;;;;;;;21.05;81.04;102112.22;10258938;28;20046;-68
2023/09/14 15:25:55;;;;;;;5.22;1.50;;;;;;;21.05;82.08;102112.22;10235767;28;20141;-69
2023/09/14 15:30:56;;;;;;;6.13;1.40;;;;;;;21.23;80.90;102114.28;10264572;28;20051;-69
2023/09/14 15:35:56;;;;;;;5.65;1.42;;;;;;;21.08;83.16;102115.25;10314044;28;20062;-69
2023/09/14 15:40:57;;;;;;;5.90;1.58;;;;;;;20.58;85.23;102122.13;10296525;28;20051;-69
2023/09/14 15:45:57;;;;;;;5.43;1.42;;;;;;;20.03;86.96;102128.66;10304236;28;20074;-70
2023/09/14 15:50:58;;;;;;;5.25;1.70;;;;;;;19.75;92.39;102141.34;10299339;28;20038;-68
2023/09/14 15:55:58;;;;;;;6.90;1.50;;;;;;;19.53;93.10;102141.66;10293164;28;20047;-69
2023/09/14 16:00:59;;;;;;;4.47;1.30;;;;;;;19.49;93.44;102137.78;10295178;28;20066;-69
2023/09/14 16:06:00;;;;;;;4.55;1.65;;;;;;;19.47;93.51;102128.84;10293290;28;20042;-70
2023/09/14 16:11:01;;;;;;;6.63;2.55;;;;;;;19.36;93.90;102114.06;10301403;28;20042;-69
2023/09/14 16:16:02;;;;;;;4.22;1.65;;;;;;;19.38;96.47;102131.38;10300020;28;20034;-69
2023/09/14 16:21:02;;;;;;;5.90;2.33;;;;;;;19.15;95.15;102116.91;10298548;28;20157;-67
2023/09/14 16:26:03;;;;;;;5.82;1.75;;;;;;;18.86;99.50;102124.22;10276275;28;20039;-69
2023/09/14 16:31:03;;;;;;;3.45;1.42;;;;;;;18.57;100.00;102135.91;10307246;28;20073;-69
2023/09/14 16:36:05;;;;;;;6.60;1.80;;;;;;;18.23;100.00;102132.78;10312431;28;20039;-69
2023/09/14 16:41:05;;;;;;;5.93;2.13;;;;;;;17.91;100.00;102131.84;10313981;28;20038;-69
2023/09/14 16:46:06;;;;;;;6.18;1.67;;;;;;;17.64;100.00;102134.78;10312798;28;20105;-68
2023/09/14 16:51:06;;;;;;;5.00;1.67;;;;;;;17.42;100.00;102129.38;10315582;28;20054;-69
2023/09/14 16:56:08;;;;;;;5.88;2.10;;;;;;;17.23;100.00;102142.06;10315354;28;20034;-68
2023/09/14 17:01:08;;;;;;;6.40;2.35;;;;;;;17.01;100.00;102143.06;10316727;28;20570;-69
2023/09/14 17:06:09;;;;;;;9.30;1.70;;;;;;;16.79;100.00;102139.50;10310392;28;20051;-68
2023/09/14 17:11:09;;;;;;;3.58;1.60;;;;;;;16.61;100.00;102152.69;10311547;28;20038;-69
2023/09/14 17:16:10;;;;;;;5.28;1.50;;;;;;;16.43;100.00;102150.28;10315867;28;20066;-68
2023/09/14 17:21:10;;;;;;;5.72;1.48;;;;;;;16.19;100.00;102150.59;10305977;28;20043;-68
2023/09/14 17:26:11;;;;;;;7.15;2.60;;;;;;;15.97;100.00;102147.84;10296836;28;20057;-68
2023/09/14 17:31:11;;;;;;;5.75;1.58;;;;;;;15.64;100.00;102126.59;10313539;28;20104;-69
2023/09/14 17:36:12;;;;;;;4.93;1.50;;;;;;;15.54;100.00;102150.34;10314447;28;20066;-69
2023/09/14 17:41:13;;;;;;;4.13;1.65;;;;;;;15.33;100.00;102151.97;10320303;28;20121;-69
2023/09/14 17:46:20;;;;;;;6.82;1.58;;;;;;;15.11;100.00;102163.03;10321571;28;20043;-69
2023/09/14 17:51:20;;;;;;;5.80;1.92;;;;;;;14.90;100.00;102166.56;10321097;28;20035;-69
2023/09/14 17:56:21;;;;;;;3.72;1.83;;;;;;;14.69;100.00;102166.19;10320949;28;20049;-69
2023/09/14 18:01:21;;;;;;;7.63;1.83;;;;;;;14.48;100.00;102158.59;10321074;28;20042;-69
2023/09/14 18:06:22;;;;;;;6.10;1.40;;;;;;;14.30;100.00;102168.81;10317666;28;20042;-69
2023/09/14 18:11:23;;;;;;;7.55;1.92;;;;;;;14.17;100.00;102173.81;10318933;28;20035;-68
2023/09/14 18:16:24;;;;;;;4.07;2.15;;;;;;;14.02;100.00;102175.16;10318744;28;20117;-69
2023/09/14 18:21:25;;;;;;;5.80;1.98;;;;;;;13.86;100.00;102168.47;10320183;28;20027;-69
2023/09/14 18:26:26;;;;;;;6.38;2.10;;;;;;;13.73;100.00;102163.22;10322471;28;20043;-69
2023/09/14 18:31:27;;;;;;;4.15;2.03;;;;;;;13.60;100.00;102164.34;10319295;28;20474;-69
2023/09/14 18:36:27;;;;;;;5.85;1.67;;;;;;;13.48;100.00;102167.09;10318668;28;20113;-69
2023/09/14 18:41:28;;;;;;;9.55;3.53;;;;;;;13.42;100.00;102161.72;10316461;28;20303;-70
2023/09/14 18:46:28;;;;;;;7.47;1.70;;;;;;;13.30;100.00;102161.72;10317828;28;20057;-70
2023/09/14 18:51:28;;;;;;;5.57;1.92;;;;;;;13.20;100.00;102161.44;10320238;28;20342;-71
2023/09/14 18:56:29;;;;;;;4.45;2.17;;;;;;;13.08;100.00;102162.28;10302035;28;20043;-70
2023/09/14 19:01:30;;;;;;;6.13;2.20;;;;;;;12.98;100.00;102172.22;10322249;28;20042;-70
2023/09/14 19:06:30;;;;;;;12.15;1.80;;;;;;;12.89;100.00;102175.34;10302833;28;20077;-70
2023/09/14 19:11:31;;;;;;;6.82;2.47;;;;;;;12.83;100.00;102183.75;10312045;28;20046;-70
2023/09/14 19:16:31;;;;;;;5.32;1.80;;;;;;;12.77;100.00;102181.94;10298306;28;20038;-69
2023/09/14 19:21:34;;;;;;;6.68;2.05;;;;;;;12.69;100.00;102180.34;10300594;28;20035;-71
2023/09/14 19:26:35;;;;;;;6.07;2.30;;;;;;;12.61;100.00;102178.78;10301778;28;20055;-70
2023/09/14 19:31:35;;;;;;;4.18;1.90;;;;;;;12.56;100.00;102180.56;10291742;28;20077;-70
2023/09/14 19:36:35;;;;;;;5.82;2.22;;;;;;;12.50;100.00;102171.28;10306403;28;20050;-71
2023/09/14 19:41:37;;;;;;;5.90;2.40;;;;;;;12.39;100.00;102180.41;10298111;28;20402;-70
2023/09/14 19:46:39;;;;;;;6.10;2.97;;;;;;;12.32;100.00;102181.34;10308501;28;20050;-70
2023/09/14 19:51:40;;;;;;;4.90;2.40;;;;;;;12.26;100.00;102175.91;10304865;28;20042;-70
2023/09/14 19:56:40;;;;;;;4.38;2.53;;;;;;;12.18;100.00;102177.06;10303002;28;20035;-70
2023/09/14 20:01:46;;;;;;;4.13;2.00;;;;;;;12.11;100.00;102179.94;10306507;28;20657;-70
2023/09/14 20:06:46;;;;;;;7.45;3.10;;;;;;;12.05;100.00;102180.00;10302085;28;20091;-70
2023/09/14 20:11:47;;;;;;;5.28;2.25;;;;;;;12.02;100.00;102186.00;10310319;28;20046;-70
2023/09/14 20:16:47;;;;;;;7.60;3.10;;;;;;;11.96;100.00;102182.22;10306971;28;20039;-70
2023/09/14 20:21:48;;;;;;;4.28;1.98;;;;;;;11.89;100.00;102182.31;10299701;28;20034;-71
2023/09/14 20:26:48;;;;;;;4.35;2.75;;;;;;;11.84;100.00;102190.41;10293677;28;20078;-70
2023/09/14 20:31:49;;;;;;;4.75;2.40;;;;;;;11.79;100.00;102181.16;10305434;28;20043;-71
2023/09/14 20:36:50;;;;;;;7.57;2.00;;;;;;;11.76;100.00;102188.00;10305237;28;20047;-71
2023/09/14 20:41:50;;;;;;;11.80;2.60;;;;;;;11.76;100.00;102185.22;10312383;28;20426;-69
2023/09/14 20:46:51;;;;;;;6.75;2.05;;;;;;;11.73;100.00;102177.41;10309684;28;21127;-70
2023/09/14 20:51:51;;;;;;;5.00;2.13;;;;;;;11.71;100.00;102179.53;10319944;28;20045;-70
2023/09/14 20:56:52;;;;;;;3.70;2.10;;;;;;;11.70;100.00;102167.66;10303834;28;20516;-70
2023/09/14 21:01:52;;;;;;;11.55;2.35;;;;;;;11.71;100.00;102160.22;10318372;28;20058;-71
2023/09/14 21:06:53;;;;;;;6.68;2.47;;;;;;;11.66;100.00;102160.09;10317535;28;20093;-70
2023/09/14 21:11:54;;;;;;;6.45;2.42;;;;;;;11.60;100.00;102158.25;10316566;28;20031;-69
2023/09/14 21:16:54;;;;;;;6.93;1.95;;;;;;;11.65;100.00;102156.47;10326221;28;20042;-70
2023/09/14 21:21:59;;;;;;;5.93;2.22;;;;;;;11.67;100.00;102150.72;10318746;28;20126;-70
2023/09/14 21:27:00;;;;;;;3.88;2.25;;;;;;;11.68;100.00;102157.94;10289679;28;20047;-70
2023/09/14 21:32:00;;;;;;;4.35;2.03;;;;;;;11.64;100.00;102154.78;10284752;28;20042;-71
2023/09/14 21:37:01;;;;;;;5.60;2.03;;;;;;;11.56;100.00;102160.63;10316471;28;20065;-70
2023/09/14 21:42:01;;;;;;;8.65;2.08;;;;;;;11.45;100.00;102166.88;10306467;28;20631;-70
2023/09/14 21:47:03;;;;;;;4.25;1.90;;;;;;;11.35;100.00;102170.19;10303131;28;20109;-71
2023/09/14 21:52:03;;;;;;;3.72;2.05;;;;;;;11.27;100.00;102167.72;10307013;28;20046;-71
2023/09/14 21:57:06;;;;;;;3.83;2.30;;;;;;;11.20;100.00;102175.19;10318937;28;20043;-71
2023/09/14 22:02:06;;;;;;;8.23;2.65;;;;;;;11.14;100.00;102167.84;10303338;28;20038;-71
2023/09/14 22:07:07;;;;;;;7.50;2.63;;;;;;;11.13;100.00;102157.91;10313166;28;20042;-72
2023/09/14 22:12:07;;;;;;;7.25;2.58;;;;;;;11.13;100.00;102163.41;10307884;28;20077;-71
2023/09/14 22:17:08;;;;;;;8.18;2.58;;;;;;;11.03;100.00;102141.88;10295589;28;20054;-70
2023/09/14 22:22:10;;;;;;;5.40;2.05;;;;;;;11.02;100.00;102160.31;10304558;28;20054;-71
2023/09/14 22:27:11;;;;;;;6.78;3.15;;;;;;;10.90;100.00;102157.44;10298419;28;20483;-71
2023/09/14 22:32:11;;;;;;;7.57;2.25;;;;;;;10.87;100.00;102162.56;10301006;28;20039;-70
2023/09/14 22:37:12;;;;;;;11.38;2.83;;;;;;;10.81;100.00;102157.94;10315320;28;20411;-71
2023/09/14 22:42:12;;;;;;;7.72;2.10;;;;;;;10.79;100.00;102160.06;10317441;28;20034;-70
2023/09/14 22:47:13;;;;;;;5.43;2.63;;;;;;;10.76;100.00;102155.03;10317449;28;20046;-71
2023/09/14 22:52:13;;;;;;;8.30;2.88;;;;;;;10.60;100.00;102135.22;10316927;28;20042;-70